KANB/ANB METAR and TAF weather

Enter ICAO airport designator
Station Type Date Time Source
KANB METAR 2022/12/05 13:53 UTC NOAA

KANB 051353Z AUTO 06006KT 1 1/4SM +RA BR FEW006 OVC012 10/10 A3011 RMK AO2 SLP198 P0006 T01000100


Station Type Date Time Source
KANB Decoded METAR 2022/12/05 13:53 UTC NOAA

ANNISTON METRO AIRPORT, AL, United States (KANB) 33-35N 085-51W 183M
Dec 05, 2022 - 08:53 AM EST / 2022.12.05 1353 UTC
Wind: from the ENE (060 degrees) at 7 MPH (6 KT):0
Visibility: 1 1/4 mile(s):0
Sky conditions: overcast
Weather: heavy rain; mist
Precipitation last hour: 0.06 inches
Temperature: 50.0 F (10.0 C)
Dew Point: 50.0 F (10.0 C)
Relative Humidity: 100%
Pressure (altimeter): 30.11 in. Hg (1019 hPa)
ob: KANB 051353Z AUTO 06006KT 1 1/4SM +RA BR FEW006 OVC012 10/10 A3011 RMK AO2 SLP198 P0006 T01000100
cycle: 14

Station Type Date Time Source
KANB TAF 2022/12/05 13:48 UTC NOAA

TAF
AMD KANB 051247Z 0513/0612 VRB03KT 5SM -SHRA BR SCT005 OVC017
TEMPO 0513/0516 2SM SHRA BKN005 OVC015
FM051600 15007KT 6SM -SHRA BR OVC007
FM060600 16005KT P6SM VCSH OVC007

Example: see airport list